createdAt,value
2017-10-21T00:03:52.491Z,12.71
2017-10-21T00:13:52.476Z,12.74
2017-10-21T00:23:52.579Z,12.69
2017-10-21T00:33:52.480Z,12.71
2017-10-21T00:43:52.630Z,12.64
2017-10-21T00:53:52.462Z,12.62
2017-10-21T01:03:52.444Z,12.59
2017-10-21T01:13:52.538Z,12.54
2017-10-21T01:23:52.470Z,12.3
2017-10-21T01:33:52.469Z,12.21
2017-10-21T01:43:52.475Z,12.09
2017-10-21T01:53:52.909Z,12.05
2017-10-21T02:03:52.497Z,11.93
2017-10-21T02:13:52.504Z,11.87
2017-10-21T02:23:52.562Z,11.85
2017-10-21T02:33:52.515Z,11.97
2017-10-21T02:43:52.578Z,12.01
2017-10-21T02:53:52.538Z,11.94
2017-10-21T03:03:52.474Z,12.04
2017-10-21T03:13:52.545Z,12.09
2017-10-21T03:23:52.512Z,12.16
2017-10-21T03:33:52.466Z,12.29
2017-10-21T03:43:52.539Z,12.3
2017-10-21T03:53:52.492Z,12.48
2017-10-21T04:03:52.552Z,12.52
2017-10-21T04:13:52.533Z,12.71
2017-10-21T04:23:52.506Z,12.77
2017-10-21T04:33:52.561Z,12.7
2017-10-21T04:43:52.505Z,12.79
2017-10-21T04:53:52.588Z,12.89
2017-10-21T05:03:52.529Z,12.87
2017-10-21T05:13:52.508Z,12.84
2017-10-21T05:23:52.547Z,12.92
2017-10-21T05:33:52.552Z,12.79
2017-10-21T05:43:52.463Z,12.77
2017-10-21T05:53:52.533Z,12.52
2017-10-21T06:03:52.494Z,12.37
2017-10-21T06:13:52.575Z,12.31
2017-10-21T06:23:52.515Z,12.06
2017-10-21T06:33:52.553Z,12.16
2017-10-21T06:43:52.529Z,12.63
2017-10-21T06:53:52.490Z,12.66
2017-10-21T07:03:52.452Z,12.75
2017-10-21T07:13:52.561Z,13.12
2017-10-21T07:23:52.471Z,13.55
2017-10-21T07:33:52.542Z,13.65
2017-10-21T07:44:00.603Z,13.76
2017-10-21T07:53:52.505Z,13.98
2017-10-21T08:03:52.577Z,14.24
2017-10-21T08:13:52.498Z,14.28
2017-10-21T08:23:52.818Z,14.54
2017-10-21T08:33:52.684Z,14.6
2017-10-21T08:43:52.483Z,14.35
2017-10-21T08:53:52.555Z,14.12
2017-10-21T09:03:52.520Z,14.07
2017-10-21T09:13:52.569Z,14.02
2017-10-21T09:23:52.593Z,13.98
2017-10-21T09:33:52.478Z,13.8
2017-10-21T09:43:54.216Z,13.88
2017-10-21T09:53:52.538Z,14.14
2017-10-21T10:03:52.513Z,14.2
2017-10-21T10:13:52.587Z,14.38
2017-10-21T10:23:52.600Z,14.46
2017-10-21T10:33:52.532Z,14.52
2017-10-21T10:43:52.507Z,14.8
2017-10-21T10:53:52.481Z,14.99
2017-10-21T11:03:52.618Z,15.45
2017-10-21T11:13:52.515Z,15.46
2017-10-21T11:23:52.554Z,15.39
2017-10-21T11:33:52.517Z,15.52
2017-10-21T11:43:52.494Z,15.82
2017-10-21T11:53:52.555Z,15.81
2017-10-21T12:03:52.439Z,16.3
2017-10-21T12:13:52.467Z,17.03
2017-10-21T12:23:52.437Z,17.36
2017-10-21T12:33:52.619Z,17.67
2017-10-21T12:43:52.537Z,17.87
2017-10-21T12:53:52.516Z,17.91
2017-10-21T13:10:20.778Z,18.7
2017-10-21T13:13:52.484Z,18.52
2017-10-21T13:23:52.623Z,18.49
2017-10-21T13:33:53.206Z,18.44
2017-10-21T13:43:52.519Z,18.37
2017-10-21T13:53:52.471Z,18.44
2017-10-21T14:03:52.546Z,18.27
2017-10-21T14:13:52.744Z,18.17
2017-10-21T14:23:54.511Z,18.27
2017-10-21T14:33:52.543Z,18.4
2017-10-21T14:43:52.504Z,18.27
2017-10-21T14:53:53.562Z,18.09
2017-10-21T15:03:52.615Z,17.78
2017-10-21T15:13:53.985Z,17.87
2017-10-21T15:23:53.963Z,17.54
2017-10-21T15:33:52.483Z,17.29
2017-10-21T15:43:52.552Z,16.92
2017-10-21T15:53:52.518Z,16.7
2017-10-21T16:03:52.489Z,16.55
2017-10-21T16:13:52.544Z,16.52
2017-10-21T16:23:52.509Z,16.04
2017-10-21T16:33:52.581Z,15.72
2017-10-21T16:43:52.510Z,15.54
2017-10-21T16:53:52.543Z,15.31
2017-10-21T17:03:52.548Z,14.91
2017-10-21T17:13:52.595Z,14.87
2017-10-21T17:23:52.472Z,14.49
2017-10-21T17:33:52.539Z,14.16
2017-10-21T17:43:52.495Z,13.91
2017-10-21T17:53:52.559Z,13.38
2017-10-21T18:03:52.511Z,13.12
2017-10-21T18:13:52.501Z,12.92
2017-10-21T18:23:52.572Z,12.62
2017-10-21T18:33:53.442Z,12.54
2017-10-21T18:43:52.566Z,12.41
2017-10-21T18:53:52.537Z,12.39
2017-10-21T19:03:52.485Z,12.26
2017-10-21T19:13:52.565Z,12.16
2017-10-21T19:23:52.507Z,12.09
2017-10-21T19:33:52.459Z,11.83
2017-10-21T19:43:52.560Z,11.82
2017-10-21T19:53:52.495Z,11.9
2017-10-21T20:03:52.565Z,11.96
2017-10-21T20:13:52.540Z,11.85
2017-10-21T20:23:52.484Z,11.8
2017-10-21T20:33:52.539Z,12.04
2017-10-21T20:43:52.513Z,12.42
2017-10-21T20:53:52.484Z,12.67
2017-10-21T21:03:52.562Z,12.6
2017-10-21T21:13:52.463Z,12.45
2017-10-21T21:23:52.546Z,12.52
2017-10-21T21:33:52.555Z,12.33
2017-10-21T21:43:52.888Z,12.24
2017-10-21T21:53:52.557Z,12.09
2017-10-21T22:03:52.523Z,11.99
2017-10-21T22:13:52.476Z,12.04
2017-10-21T22:23:52.510Z,12.15
2017-10-21T22:33:52.849Z,12.15
2017-10-21T22:43:52.558Z,12.16
2017-10-21T22:53:52.535Z,12.06
2017-10-21T23:03:52.473Z,11.99
2017-10-21T23:13:52.609Z,11.9
2017-10-21T23:23:52.504Z,11.53
2017-10-21T23:33:52.566Z,11.49
2017-10-21T23:43:52.788Z,11.46
2017-10-21T23:53:52.485Z,11.44
